createdAt,value
2017-09-03T00:00:34.985Z,10.04
2017-09-03T00:01:34.979Z,10.02
2017-09-03T00:02:35.002Z,10.04
2017-09-03T00:03:34.979Z,10.04
2017-09-03T00:04:35.004Z,10.05
2017-09-03T00:05:35.034Z,10.06
2017-09-03T00:06:34.979Z,10.08
2017-09-03T00:07:35.186Z,10.06
2017-09-03T00:08:35.073Z,10.08
2017-09-03T00:09:35.004Z,10.06
2017-09-03T00:10:35.030Z,10.02
2017-09-03T00:11:35.039Z,9.98
2017-09-03T00:12:35.019Z,10.00
2017-09-03T00:13:35.072Z,10.01
2017-09-03T00:14:34.967Z,10.02
2017-09-03T00:15:35.041Z,10.02
2017-09-03T00:16:35.033Z,10.02
2017-09-03T00:17:35.018Z,10.01
2017-09-03T00:18:35.046Z,10.04
2017-09-03T00:19:34.982Z,10.02
2017-09-03T00:20:35.031Z,10.01
2017-09-03T00:21:35.076Z,10.01
2017-09-03T00:22:35.078Z,10.02
2017-09-03T00:23:35.043Z,10.00
2017-09-03T00:24:35.021Z,10.01
2017-09-03T00:25:34.991Z,10.01
2017-09-03T00:26:35.016Z,10.00
2017-09-03T00:27:35.019Z,9.95
2017-09-03T00:28:35.079Z,9.93
2017-09-03T00:29:35.021Z,9.93
2017-09-03T00:30:35.021Z,9.93
2017-09-03T00:31:35.044Z,9.91
2017-09-03T00:32:35.044Z,9.91
2017-09-03T00:33:35.046Z,9.91
2017-09-03T00:34:35.046Z,9.91
2017-09-03T00:35:35.020Z,9.93
2017-09-03T00:36:35.044Z,9.94
2017-09-03T00:37:35.080Z,9.94
2017-09-03T00:38:35.101Z,9.94
2017-09-03T00:39:35.022Z,9.94
2017-09-03T00:40:35.102Z,9.93
2017-09-03T00:41:35.052Z,9.94
2017-09-03T00:42:35.024Z,9.93
2017-09-03T00:43:35.083Z,9.91
2017-09-03T00:44:35.024Z,9.87
2017-09-03T00:45:35.023Z,9.86
2017-09-03T00:46:35.052Z,9.86
2017-09-03T00:47:35.025Z,9.84
2017-09-03T00:48:35.032Z,9.84
2017-09-03T00:49:35.024Z,9.86
2017-09-03T00:50:35.088Z,9.87
2017-09-03T00:51:35.090Z,9.87
2017-09-03T00:52:35.074Z,9.87
2017-09-03T00:53:35.106Z,9.87
2017-09-03T00:54:35.061Z,9.84
2017-09-03T00:55:35.104Z,9.84
2017-09-03T00:56:35.036Z,9.82
2017-09-03T00:57:35.061Z,9.82
2017-09-03T00:58:35.031Z,9.82
2017-09-03T00:59:35.097Z,9.82
2017-09-03T01:00:35.102Z,9.82
2017-09-03T01:01:35.062Z,9.80
2017-09-03T01:02:35.041Z,9.83
2017-09-03T01:03:35.119Z,9.79
2017-09-03T01:04:35.101Z,9.76
2017-09-03T01:05:35.068Z,9.76
2017-09-03T01:06:35.100Z,9.76
2017-09-03T01:07:35.037Z,9.76
2017-09-03T01:08:35.113Z,9.76
2017-09-03T01:09:35.145Z,9.75
2017-09-03T01:10:35.133Z,9.75
2017-09-03T01:11:35.058Z,9.78
2017-09-03T01:12:35.055Z,9.79
2017-09-03T01:13:35.080Z,9.78
2017-09-03T01:14:35.080Z,9.79
2017-09-03T01:15:35.073Z,9.82
2017-09-03T01:16:35.051Z,9.82
2017-09-03T01:17:35.119Z,9.87
2017-09-03T01:18:35.074Z,9.91
2017-09-03T01:19:35.073Z,9.90
2017-09-03T01:20:35.105Z,9.91
2017-09-03T01:21:35.113Z,9.87
2017-09-03T01:22:35.075Z,9.86
2017-09-03T01:23:35.049Z,9.83
2017-09-03T01:24:35.115Z,9.82
2017-09-03T01:25:35.052Z,9.80
2017-09-03T01:26:35.116Z,9.79
2017-09-03T01:27:35.081Z,9.79
2017-09-03T01:28:35.088Z,9.76
2017-09-03T01:29:35.119Z,9.76
2017-09-03T01:30:35.097Z,9.75
2017-09-03T01:31:35.153Z,9.76
2017-09-03T01:32:35.146Z,9.72
2017-09-03T01:33:35.097Z,9.66
2017-09-03T01:34:35.064Z,9.64
2017-09-03T01:35:35.092Z,9.64
2017-09-03T01:36:35.085Z,9.64
2017-09-03T01:37:35.064Z,9.62
2017-09-03T01:38:35.059Z,9.61
2017-09-03T01:39:35.119Z,9.58
2017-09-03T01:40:35.087Z,9.60
2017-09-03T01:41:35.084Z,9.57
2017-09-03T01:42:35.169Z,9.58
2017-09-03T01:43:35.088Z,9.58
2017-09-03T01:44:35.056Z,9.61
2017-09-03T01:45:35.121Z,9.61
2017-09-03T01:46:35.121Z,9.62
2017-09-03T01:47:35.091Z,9.62
2017-09-03T01:48:35.094Z,9.61
2017-09-03T01:49:35.171Z,9.61
2017-09-03T01:50:35.162Z,9.62
2017-09-03T01:51:35.106Z,9.61
2017-09-03T01:52:35.140Z,9.61
2017-09-03T01:53:35.160Z,9.62
2017-09-03T01:54:35.139Z,9.64
2017-09-03T01:55:35.113Z,9.62
2017-09-03T01:56:35.163Z,9.62
2017-09-03T01:57:35.111Z,9.62
2017-09-03T01:58:35.081Z,9.62
2017-09-03T01:59:35.137Z,9.62
2017-09-03T02:00:35.081Z,9.64
2017-09-03T02:01:35.077Z,9.61
2017-09-03T02:02:35.107Z,9.61
2017-09-03T02:03:35.175Z,9.61
2017-09-03T02:04:35.115Z,9.61
2017-09-03T02:05:35.109Z,9.60
2017-09-03T02:06:35.151Z,9.58
2017-09-03T02:07:35.136Z,9.55
2017-09-03T02:08:35.117Z,9.54
2017-09-03T02:09:35.119Z,9.53
2017-09-03T02:10:35.088Z,9.51
2017-09-03T02:11:35.167Z,9.51
2017-09-03T02:12:35.118Z,9.50
2017-09-03T02:13:35.173Z,9.49
2017-09-03T02:14:35.145Z,9.49
2017-09-03T02:15:35.170Z,9.47
2017-09-03T02:16:35.086Z,9.46
2017-09-03T02:17:35.124Z,9.44
2017-09-03T02:18:35.139Z,9.46
2017-09-03T02:19:35.142Z,9.46
2017-09-03T02:20:35.084Z,9.49
2017-09-03T02:21:35.113Z,9.47
2017-09-03T02:22:35.196Z,9.49
2017-09-03T02:23:35.083Z,9.49
2017-09-03T02:24:35.088Z,9.49
2017-09-03T02:25:35.154Z,9.47
2017-09-03T02:26:35.118Z,9.47
2017-09-03T02:27:35.145Z,9.47
2017-09-03T02:28:35.167Z,9.47
2017-09-03T02:29:35.124Z,9.44
2017-09-03T02:30:35.147Z,9.38
2017-09-03T02:31:35.148Z,9.36
2017-09-03T02:32:35.153Z,9.34
2017-09-03T02:33:35.114Z,9.34
2017-09-03T02:34:35.092Z,9.36
2017-09-03T02:35:35.119Z,9.38
2017-09-03T02:36:35.122Z,9.39
2017-09-03T02:37:35.088Z,9.39
2017-09-03T02:38:35.118Z,9.42
2017-09-03T02:39:35.118Z,9.42
2017-09-03T02:40:35.091Z,9.43
2017-09-03T02:41:35.092Z,9.44
2017-09-03T02:42:35.156Z,9.47
2017-09-03T02:43:35.122Z,9.49
2017-09-03T02:44:35.123Z,9.47
2017-09-03T02:45:35.054Z,9.49
2017-09-03T02:46:35.051Z,9.50
2017-09-03T02:47:35.053Z,9.49
2017-09-03T02:48:35.058Z,9.50
2017-09-03T02:49:35.149Z,9.49
2017-09-03T02:50:35.055Z,9.47
2017-09-03T02:51:35.056Z,9.47
2017-09-03T02:52:35.057Z,9.46
2017-09-03T02:53:35.057Z,9.46
2017-09-03T02:54:35.059Z,9.43
2017-09-03T02:55:35.132Z,9.42
2017-09-03T02:56:35.170Z,9.38
2017-09-03T02:57:35.110Z,9.38
2017-09-03T02:58:35.105Z,9.36
2017-09-03T02:59:35.111Z,9.34
2017-09-03T03:00:35.136Z,9.34
2017-09-03T03:01:35.134Z,9.36
2017-09-03T03:02:35.168Z,9.38
2017-09-03T03:03:35.109Z,9.36
2017-09-03T03:04:35.171Z,9.32
2017-09-03T03:05:35.193Z,9.32
2017-09-03T03:06:35.155Z,9.31
2017-09-03T03:07:35.217Z,9.32
2017-09-03T03:08:35.209Z,9.31
2017-09-03T03:09:35.211Z,9.31
2017-09-03T03:10:35.147Z,9.30
2017-09-03T03:11:35.148Z,9.31
2017-09-03T03:12:35.119Z,9.31
2017-09-03T03:13:35.147Z,9.28
2017-09-03T03:14:35.129Z,9.27
2017-09-03T03:15:35.141Z,9.28
2017-09-03T03:16:35.143Z,9.27
2017-09-03T03:17:35.111Z,9.30
2017-09-03T03:18:35.115Z,9.30
2017-09-03T03:19:35.181Z,9.31
2017-09-03T03:20:35.183Z,9.34
2017-09-03T03:21:35.179Z,9.34
2017-09-03T03:22:35.149Z,9.36
2017-09-03T03:23:35.182Z,9.36
2017-09-03T03:24:35.181Z,9.34
2017-09-03T03:25:35.129Z,9.36
2017-09-03T03:26:35.218Z,9.39
2017-09-03T03:27:35.198Z,9.40
2017-09-03T03:28:35.130Z,9.42
2017-09-03T03:29:35.204Z,9.40
2017-09-03T03:30:35.204Z,9.40
2017-09-03T03:31:35.236Z,9.40
2017-09-03T03:32:35.229Z,9.43
2017-09-03T03:33:35.240Z,9.44
2017-09-03T03:34:35.167Z,9.46
2017-09-03T03:35:35.220Z,9.47
2017-09-03T03:36:35.200Z,9.47
2017-09-03T03:37:35.231Z,9.49
2017-09-03T03:38:35.137Z,9.49
2017-09-03T03:39:35.139Z,9.49
2017-09-03T03:40:35.264Z,9.50
2017-09-03T03:41:35.174Z,9.50
2017-09-03T03:42:35.227Z,9.50
2017-09-03T03:43:35.233Z,9.50
2017-09-03T03:44:35.177Z,9.50
2017-09-03T03:45:35.210Z,9.50
2017-09-03T03:46:35.140Z,9.50
2017-09-03T03:47:35.142Z,9.50
2017-09-03T03:48:35.149Z,9.49
2017-09-03T03:49:35.172Z,9.47
2017-09-03T03:50:35.177Z,9.46
2017-09-03T03:51:35.175Z,9.47
2017-09-03T03:52:35.235Z,9.51
2017-09-03T03:53:35.223Z,9.54
2017-09-03T03:54:35.184Z,9.57
2017-09-03T03:55:35.140Z,9.54
2017-09-03T03:56:35.202Z,9.49
2017-09-03T03:57:35.204Z,9.44
2017-09-03T03:58:35.169Z,9.40
2017-09-03T03:59:35.204Z,9.36
2017-09-03T04:00:35.204Z,9.36
2017-09-03T04:01:35.169Z,9.36
2017-09-03T04:02:35.205Z,9.38
2017-09-03T04:03:35.172Z,9.40
2017-09-03T04:04:35.145Z,9.38
2017-09-03T04:05:35.149Z,9.36
2017-09-03T04:06:35.184Z,9.36
2017-09-03T04:07:35.187Z,9.34
2017-09-03T04:08:35.178Z,9.34
2017-09-03T04:09:35.176Z,9.32
2017-09-03T04:10:35.185Z,9.31
2017-09-03T04:11:35.151Z,9.34
2017-09-03T04:12:35.179Z,9.31
2017-09-03T04:13:35.153Z,9.31
2017-09-03T04:14:35.131Z,9.25
2017-09-03T04:15:35.192Z,9.23
2017-09-03T04:16:35.195Z,9.25
2017-09-03T04:17:35.197Z,9.25
2017-09-03T04:18:35.228Z,9.25
2017-09-03T04:19:35.160Z,9.25
2017-09-03T04:20:35.159Z,9.25
2017-09-03T04:21:35.254Z,9.23
2017-09-03T04:22:35.229Z,9.23
2017-09-03T04:23:35.215Z,9.20
2017-09-03T04:24:35.256Z,9.19
2017-09-03T04:25:35.189Z,9.16
2017-09-03T04:26:35.240Z,9.15
2017-09-03T04:27:35.229Z,9.11
2017-09-03T04:28:35.199Z,9.09
2017-09-03T04:29:35.204Z,9.08
2017-09-03T04:30:35.269Z,9.08
2017-09-03T04:31:35.193Z,9.09
2017-09-03T04:32:35.259Z,9.09
2017-09-03T04:33:35.243Z,9.09
2017-09-03T04:34:35.174Z,9.08
2017-09-03T04:35:35.167Z,9.07
2017-09-03T04:36:35.206Z,9.04
2017-09-03T04:37:35.225Z,9.04
2017-09-03T04:38:35.262Z,9.02
2017-09-03T04:39:35.268Z,9.02
2017-09-03T04:40:35.208Z,9.02
2017-09-03T04:41:35.230Z,9.05
2017-09-03T04:42:35.246Z,9.05
2017-09-03T04:43:35.274Z,9.08
2017-09-03T04:44:35.267Z,9.09
2017-09-03T04:45:35.270Z,9.09
2017-09-03T04:46:35.264Z,9.11
2017-09-03T04:47:35.232Z,9.11
2017-09-03T04:48:35.183Z,9.11
2017-09-03T04:49:35.185Z,9.11
2017-09-03T04:50:35.182Z,9.09
2017-09-03T04:51:35.274Z,9.07
2017-09-03T04:52:35.217Z,9.07
2017-09-03T04:53:35.202Z,9.05
2017-09-03T04:54:35.218Z,9.05
2017-09-03T04:55:35.178Z,9.02
2017-09-03T04:56:35.242Z,9.00
2017-09-03T04:57:35.186Z,8.97
2017-09-03T04:58:35.163Z,8.96
2017-09-03T04:59:35.164Z,8.93
2017-09-03T05:00:35.137Z,8.90
2017-09-03T05:01:35.207Z,8.87
2017-09-03T05:02:35.138Z,8.87
2017-09-03T05:03:35.208Z,8.86
2017-09-03T05:04:35.156Z,8.86
2017-09-03T05:05:35.188Z,8.86
2017-09-03T05:06:35.207Z,8.86
2017-09-03T05:07:35.246Z,8.85
2017-09-03T05:08:35.262Z,8.85
2017-09-03T05:09:35.283Z,8.83
2017-09-03T05:10:35.212Z,8.82
2017-09-03T05:11:35.228Z,8.80
2017-09-03T05:12:35.199Z,8.82
2017-09-03T05:13:35.281Z,8.80
2017-09-03T05:14:35.194Z,8.82
2017-09-03T05:15:35.214Z,8.76
2017-09-03T05:16:35.192Z,8.75
2017-09-03T05:17:35.217Z,8.74
2017-09-03T05:18:35.253Z,8.75
2017-09-03T05:19:35.194Z,8.74
2017-09-03T05:20:35.284Z,8.72
2017-09-03T05:21:35.218Z,8.68
2017-09-03T05:22:35.198Z,8.65
2017-09-03T05:23:35.266Z,8.65
2017-09-03T05:24:35.224Z,8.64
2017-09-03T05:25:35.239Z,8.64
2017-09-03T05:26:35.295Z,8.65
2017-09-03T05:27:35.341Z,8.67
2017-09-03T05:28:35.195Z,8.67
2017-09-03T05:29:35.239Z,8.67
2017-09-03T05:30:35.294Z,8.68
2017-09-03T05:31:35.264Z,8.71
2017-09-03T05:32:35.230Z,8.72
2017-09-03T05:33:35.225Z,8.72
2017-09-03T05:34:35.275Z,8.71
2017-09-03T05:35:35.206Z,8.69
2017-09-03T05:36:35.227Z,8.69
2017-09-03T05:37:35.300Z,8.71
2017-09-03T05:38:35.231Z,8.74
2017-09-03T05:39:35.240Z,8.78
2017-09-03T05:40:35.242Z,8.79
2017-09-03T05:41:35.210Z,8.80
2017-09-03T05:42:35.262Z,8.79
2017-09-03T05:43:35.236Z,8.80
2017-09-03T05:44:35.209Z,8.78
2017-09-03T05:45:35.233Z,8.71
2017-09-03T05:46:35.211Z,8.68
2017-09-03T05:47:35.215Z,8.65
2017-09-03T05:48:35.272Z,8.65
2017-09-03T05:49:35.283Z,8.64
2017-09-03T05:50:35.300Z,8.57
2017-09-03T05:51:35.236Z,8.57
2017-09-03T05:52:35.212Z,8.56
2017-09-03T05:53:35.219Z,8.56
2017-09-03T05:54:35.267Z,8.53
2017-09-03T05:55:35.224Z,8.53
2017-09-03T05:56:35.281Z,8.53
2017-09-03T05:57:35.220Z,8.54
2017-09-03T05:58:35.245Z,8.54
2017-09-03T05:59:35.246Z,8.57
2017-09-03T06:00:35.225Z,8.57
2017-09-03T06:01:35.307Z,8.60
2017-09-03T06:02:35.281Z,8.65
2017-09-03T06:03:35.243Z,8.69
2017-09-03T06:04:35.281Z,8.75
2017-09-03T06:05:35.287Z,8.75
2017-09-03T06:06:35.218Z,8.75
2017-09-03T06:07:35.214Z,8.72
2017-09-03T06:08:35.269Z,8.75
2017-09-03T06:09:35.228Z,8.75
2017-09-03T06:10:35.199Z,8.78
2017-09-03T06:11:35.247Z,8.83
2017-09-03T06:12:35.257Z,8.87
2017-09-03T06:13:35.253Z,8.90
2017-09-03T06:14:35.196Z,8.90
2017-09-03T06:15:35.196Z,8.90
2017-09-03T06:16:35.256Z,8.89
2017-09-03T06:17:35.248Z,8.90
2017-09-03T06:18:35.253Z,8.89
2017-09-03T06:19:35.242Z,8.89
2017-09-03T06:20:35.180Z,8.93
2017-09-03T06:21:35.224Z,9.00
2017-09-03T06:22:35.251Z,9.02
2017-09-03T06:23:35.246Z,9.04
2017-09-03T06:24:35.262Z,9.02
2017-09-03T06:25:35.297Z,8.94
2017-09-03T06:26:35.296Z,8.90
2017-09-03T06:27:35.238Z,8.90
2017-09-03T06:28:35.241Z,8.90
2017-09-03T06:29:35.324Z,8.89
2017-09-03T06:30:35.292Z,8.90
2017-09-03T06:31:35.301Z,8.91
2017-09-03T06:32:35.240Z,8.94
2017-09-03T06:33:35.302Z,9.00
2017-09-03T06:34:35.271Z,9.01
2017-09-03T06:35:35.266Z,9.02
2017-09-03T06:36:35.333Z,9.02
2017-09-03T06:37:35.261Z,9.05
2017-09-03T06:38:35.331Z,9.09
2017-09-03T06:39:35.272Z,9.07
2017-09-03T06:40:35.276Z,8.98
2017-09-03T06:41:35.242Z,9.00
2017-09-03T06:42:35.296Z,9.04
2017-09-03T06:43:35.283Z,9.05
2017-09-03T06:44:35.324Z,9.07
2017-09-03T06:45:35.270Z,9.09
2017-09-03T06:46:35.238Z,9.12
2017-09-03T06:47:35.298Z,9.09
2017-09-03T06:48:35.287Z,9.12
2017-09-03T06:49:35.309Z,9.13
2017-09-03T06:50:35.323Z,9.23
2017-09-03T06:51:35.303Z,9.32
2017-09-03T06:52:35.305Z,9.40
2017-09-03T06:53:35.272Z,9.47
2017-09-03T06:54:35.273Z,9.50
2017-09-03T06:55:35.327Z,9.53
2017-09-03T06:56:35.290Z,9.60
2017-09-03T06:57:35.277Z,9.57
2017-09-03T06:58:35.282Z,9.55
2017-09-03T06:59:35.309Z,9.47
2017-09-03T07:00:35.286Z,9.43
2017-09-03T07:01:35.273Z,9.44
2017-09-03T07:02:35.287Z,9.46
2017-09-03T07:03:35.318Z,9.42
2017-09-03T07:04:35.281Z,9.49
2017-09-03T07:05:35.253Z,9.53
2017-09-03T07:06:35.282Z,9.46
2017-09-03T07:07:35.226Z,9.42
2017-09-03T07:08:35.212Z,9.40
2017-09-03T07:09:35.257Z,9.40
2017-09-03T07:10:35.274Z,9.46
2017-09-03T07:11:35.265Z,9.51
2017-09-03T07:12:35.231Z,9.57
2017-09-03T07:13:35.285Z,9.62
2017-09-03T07:14:35.240Z,9.58
2017-09-03T07:15:35.251Z,9.62
2017-09-03T07:16:35.261Z,9.62
2017-09-03T07:17:35.319Z,9.71
2017-09-03T07:18:35.287Z,9.80
2017-09-03T07:19:35.323Z,9.83
2017-09-03T07:20:35.317Z,9.89
2017-09-03T07:21:35.287Z,9.90
2017-09-03T07:22:35.262Z,9.86
2017-09-03T07:23:35.287Z,9.83
2017-09-03T07:24:35.323Z,9.87
2017-09-03T07:25:35.289Z,9.98
2017-09-03T07:26:35.296Z,10.06
2017-09-03T07:27:35.343Z,10.11
2017-09-03T07:28:35.400Z,10.06
2017-09-03T07:29:35.308Z,10.01
2017-09-03T07:30:35.327Z,10.08
2017-09-03T07:31:35.278Z,10.05
2017-09-03T07:32:35.303Z,10.04
2017-09-03T07:33:35.278Z,10.11
2017-09-03T07:34:35.338Z,10.18
2017-09-03T07:35:35.334Z,10.24
2017-09-03T07:36:35.332Z,10.28
2017-09-03T07:37:35.295Z,10.31
2017-09-03T07:38:35.269Z,10.35
2017-09-03T07:39:35.299Z,10.31
2017-09-03T07:40:35.275Z,10.34
2017-09-03T07:41:35.297Z,10.34
2017-09-03T07:42:35.300Z,10.39
2017-09-03T07:43:35.331Z,10.50
2017-09-03T07:44:35.337Z,10.54
2017-09-03T07:45:35.277Z,10.56
2017-09-03T07:46:35.323Z,10.57
2017-09-03T07:47:35.307Z,10.61
2017-09-03T07:48:35.319Z,10.67
2017-09-03T07:49:35.318Z,10.77
2017-09-03T07:50:35.277Z,10.72
2017-09-03T07:51:35.356Z,10.67
2017-09-03T07:52:35.324Z,10.65
2017-09-03T07:53:35.385Z,10.61
2017-09-03T07:54:35.341Z,10.60
2017-09-03T07:55:35.325Z,10.60
2017-09-03T07:56:35.320Z,10.63
2017-09-03T07:57:35.308Z,10.63
2017-09-03T07:58:35.294Z,10.64
2017-09-03T07:59:35.356Z,10.77
2017-09-03T08:00:35.290Z,10.93
2017-09-03T08:01:35.348Z,10.95
2017-09-03T08:02:35.353Z,10.98
2017-09-03T08:03:35.292Z,11.11
2017-09-03T08:04:35.382Z,11.11
2017-09-03T08:05:35.357Z,11.07
2017-09-03T08:06:35.293Z,10.98
2017-09-03T08:07:35.327Z,10.95
2017-09-03T08:08:35.383Z,11.06
2017-09-03T08:09:35.295Z,11.09
2017-09-03T08:10:35.300Z,11.25
2017-09-03T08:11:35.359Z,11.24
2017-09-03T08:12:35.302Z,11.18
2017-09-03T08:13:35.368Z,11.20
2017-09-03T08:14:35.296Z,11.28
2017-09-03T08:15:35.303Z,11.31
2017-09-03T08:16:35.301Z,11.32
2017-09-03T08:17:35.372Z,11.38
2017-09-03T08:18:35.307Z,11.47
2017-09-03T08:19:35.338Z,11.53
2017-09-03T08:20:35.380Z,11.64
2017-09-03T08:21:35.308Z,11.75
2017-09-03T08:22:35.368Z,11.69
2017-09-03T08:23:35.341Z,11.67
2017-09-03T08:24:35.332Z,11.71
2017-09-03T08:25:35.312Z,11.80
2017-09-03T08:26:35.329Z,11.82
2017-09-03T08:27:35.332Z,11.84
2017-09-03T08:28:35.345Z,11.78
2017-09-03T08:29:35.371Z,11.76
2017-09-03T08:30:35.313Z,11.94
2017-09-03T08:31:35.336Z,12.05
2017-09-03T08:32:35.371Z,12.02
2017-09-03T08:33:35.403Z,12.02
2017-09-03T08:34:35.407Z,12.12
2017-09-03T08:35:35.349Z,12.18
2017-09-03T08:36:35.335Z,12.29
2017-09-03T08:37:35.301Z,12.42
2017-09-03T08:38:35.306Z,12.36
2017-09-03T08:39:35.301Z,12.50
2017-09-03T08:40:35.370Z,12.46
2017-09-03T08:41:35.335Z,12.40
2017-09-03T08:42:35.371Z,12.37
2017-09-03T08:43:35.370Z,12.54
2017-09-03T08:44:35.304Z,12.69
2017-09-03T08:45:35.395Z,12.80
2017-09-03T08:46:35.309Z,12.94
2017-09-03T08:47:35.340Z,13.05
2017-09-03T08:48:35.341Z,12.99
2017-09-03T08:49:35.342Z,12.96
2017-09-03T08:50:35.314Z,12.91
2017-09-03T08:51:35.318Z,13.02
2017-09-03T08:52:35.377Z,13.16
2017-09-03T08:53:35.375Z,13.16
2017-09-03T08:54:35.319Z,13.24
2017-09-03T08:55:35.378Z,13.36
2017-09-03T08:56:35.378Z,13.43
2017-09-03T08:57:35.349Z,13.31
2017-09-03T08:58:35.389Z,13.21
2017-09-03T08:59:35.363Z,13.18
2017-09-03T09:00:35.390Z,13.17
2017-09-03T09:01:35.383Z,13.13
2017-09-03T09:02:35.411Z,13.24
2017-09-03T09:03:35.401Z,13.24
2017-09-03T09:04:35.350Z,13.24
2017-09-03T09:05:35.402Z,13.36
2017-09-03T09:06:35.351Z,13.53
2017-09-03T09:07:35.326Z,13.49
2017-09-03T09:08:35.337Z,13.54
2017-09-03T09:09:35.333Z,13.70
2017-09-03T09:10:35.351Z,13.77
2017-09-03T09:11:35.356Z,13.75
2017-09-03T09:12:35.303Z,13.65
2017-09-03T09:13:35.306Z,13.66
2017-09-03T09:14:35.327Z,13.79
2017-09-03T09:15:35.392Z,13.89
2017-09-03T09:16:35.461Z,14.02
2017-09-03T09:17:35.370Z,14.18
2017-09-03T09:18:35.406Z,14.39
2017-09-03T09:19:35.366Z,14.51
2017-09-03T09:20:35.337Z,14.83
2017-09-03T09:21:35.407Z,15.13
2017-09-03T09:22:35.373Z,15.43
2017-09-03T09:23:35.338Z,15.68
2017-09-03T09:24:35.372Z,15.59
2017-09-03T09:25:35.339Z,15.54
2017-09-03T09:26:35.341Z,15.47
2017-09-03T09:27:35.433Z,15.44
2017-09-03T09:28:35.436Z,15.37
2017-09-03T09:29:35.378Z,15.51
2017-09-03T09:30:35.369Z,15.57
2017-09-03T09:31:35.402Z,15.33
2017-09-03T09:32:35.436Z,15.22
2017-09-03T09:33:35.373Z,15.36
2017-09-03T09:34:35.381Z,15.53
2017-09-03T09:35:35.382Z,15.76
2017-09-03T09:36:35.362Z,16.00
2017-09-03T09:37:35.336Z,16.21
2017-09-03T09:38:35.405Z,16.38
2017-09-03T09:39:35.367Z,16.58
2017-09-03T09:40:35.373Z,16.81
2017-09-03T09:41:35.406Z,17.03
2017-09-03T09:42:35.370Z,17.16
2017-09-03T09:43:35.370Z,17.01
2017-09-03T09:44:35.404Z,16.32
2017-09-03T09:45:35.344Z,15.99
2017-09-03T09:46:35.371Z,15.84
2017-09-03T09:47:35.347Z,16.13
2017-09-03T09:48:35.374Z,16.39
2017-09-03T09:49:35.377Z,16.54
2017-09-03T09:50:35.362Z,16.66
2017-09-03T09:51:35.373Z,16.90
2017-09-03T09:52:35.326Z,17.10
2017-09-03T09:53:35.306Z,17.12
2017-09-03T09:54:35.356Z,17.39
2017-09-03T09:55:35.353Z,17.69
2017-09-03T09:56:35.450Z,17.91
2017-09-03T09:57:35.394Z,17.83
2017-09-03T09:58:35.385Z,17.47
2017-09-03T09:59:35.420Z,17.60
2017-09-03T10:00:35.454Z,17.77
2017-09-03T10:01:35.361Z,17.68
2017-09-03T10:02:35.394Z,17.92
2017-09-03T10:03:35.416Z,18.09
2017-09-03T10:04:35.456Z,18.40
2017-09-03T10:05:35.380Z,18.06
2017-09-03T10:06:35.384Z,18.00
2017-09-03T10:07:35.359Z,18.31
2017-09-03T10:08:35.364Z,18.50
2017-09-03T10:09:35.358Z,18.32
2017-09-03T10:10:35.385Z,18.18
2017-09-03T10:11:35.354Z,18.29
2017-09-03T10:12:35.388Z,18.43
2017-09-03T10:13:35.387Z,18.44
2017-09-03T10:14:35.390Z,18.58
2017-09-03T10:15:35.389Z,18.90
2017-09-03T10:16:35.357Z,18.91
2017-09-03T10:17:35.434Z,19.03
2017-09-03T10:18:35.395Z,19.53
2017-09-03T10:19:35.426Z,19.58
2017-09-03T10:20:35.390Z,19.80
2017-09-03T10:21:35.446Z,19.80
2017-09-03T10:22:35.363Z,19.64
2017-09-03T10:23:35.395Z,19.55
2017-09-03T10:24:35.396Z,19.72
2017-09-03T10:25:35.403Z,19.99
2017-09-03T10:26:35.400Z,20.20
2017-09-03T10:27:35.386Z,20.25
2017-09-03T10:28:35.373Z,20.25
2017-09-03T10:29:35.411Z,20.18
2017-09-03T10:30:35.378Z,20.45
2017-09-03T10:31:35.355Z,20.66
2017-09-03T10:32:35.360Z,20.68
2017-09-03T10:33:35.360Z,20.87
2017-09-03T10:34:35.443Z,20.91
2017-09-03T10:35:35.377Z,21.04
2017-09-03T10:36:35.367Z,21.21
2017-09-03T10:37:35.379Z,21.14
2017-09-03T10:38:35.314Z,21.22
2017-09-03T10:39:35.379Z,21.13
2017-09-03T10:40:35.380Z,20.50
2017-09-03T10:41:35.371Z,20.72
2017-09-03T10:42:35.456Z,20.95
2017-09-03T10:43:35.378Z,21.01
2017-09-03T10:44:35.350Z,20.88
2017-09-03T10:45:35.395Z,20.53
2017-09-03T10:46:35.443Z,20.25
2017-09-03T10:47:35.451Z,20.24
2017-09-03T10:48:35.430Z,20.68
2017-09-03T10:49:35.424Z,20.86
2017-09-03T10:50:35.483Z,21.25
2017-09-03T10:51:35.425Z,21.45
2017-09-03T10:52:35.431Z,21.56
2017-09-03T10:53:35.433Z,21.60
2017-09-03T10:54:35.470Z,21.60
2017-09-03T10:55:35.421Z,21.68
2017-09-03T10:56:35.492Z,21.60
2017-09-03T10:57:35.435Z,21.57
2017-09-03T10:58:35.399Z,21.51
2017-09-03T10:59:35.439Z,21.80
2017-09-03T11:00:35.471Z,22.04
2017-09-03T11:01:35.397Z,21.94
2017-09-03T11:02:35.419Z,22.12
2017-09-03T11:03:35.495Z,22.19
2017-09-03T11:04:35.501Z,22.25
2017-09-03T11:05:35.496Z,22.23
2017-09-03T11:06:35.392Z,22.09
2017-09-03T11:07:35.395Z,21.96
2017-09-03T11:08:35.417Z,22.10
2017-09-03T11:09:35.398Z,21.98
2017-09-03T11:10:35.404Z,21.51
2017-09-03T11:11:35.460Z,20.98
2017-09-03T11:12:35.397Z,20.75
2017-09-03T11:13:35.451Z,20.68
2017-09-03T11:14:35.341Z,20.84
2017-09-03T11:15:35.342Z,20.90
2017-09-03T11:16:35.501Z,21.09
2017-09-03T11:17:35.504Z,21.35
2017-09-03T11:18:35.407Z,21.46
2017-09-03T11:19:35.480Z,21.76
2017-09-03T11:20:35.481Z,22.08
2017-09-03T11:21:35.432Z,22.17
2017-09-03T11:22:35.506Z,22.34
2017-09-03T11:23:35.476Z,22.24
2017-09-03T11:24:35.418Z,22.14
2017-09-03T11:25:35.458Z,21.89
2017-09-03T11:26:35.433Z,21.76
2017-09-03T11:27:35.448Z,22.08
2017-09-03T11:28:35.450Z,22.25
2017-09-03T11:29:35.505Z,22.31
2017-09-03T11:30:35.501Z,22.20
2017-09-03T11:31:35.469Z,22.09
2017-09-03T11:32:35.455Z,21.96
2017-09-03T11:33:35.414Z,21.94
2017-09-03T11:34:35.513Z,22.24
2017-09-03T11:35:35.517Z,22.27
2017-09-03T11:36:35.494Z,22.36
2017-09-03T11:37:35.533Z,22.04
2017-09-03T11:38:35.517Z,21.54
2017-09-03T11:39:35.513Z,21.49
2017-09-03T11:40:35.604Z,21.24
2017-09-03T11:41:35.496Z,21.16
2017-09-03T11:42:35.515Z,21.27
2017-09-03T11:43:35.455Z,21.22
2017-09-03T11:44:35.484Z,21.08
2017-09-03T11:45:35.520Z,21.08
2017-09-03T11:46:35.515Z,21.18
2017-09-03T11:47:35.480Z,21.14
2017-09-03T11:48:35.476Z,21.10
2017-09-03T11:49:35.418Z,21.09
2017-09-03T11:50:35.484Z,20.99
2017-09-03T11:51:35.444Z,20.90
2017-09-03T11:52:35.485Z,20.95
2017-09-03T11:53:35.483Z,21.20
2017-09-03T11:54:35.450Z,21.49
2017-09-03T11:55:35.484Z,21.68
2017-09-03T11:56:35.456Z,21.75
2017-09-03T11:57:35.481Z,21.79
2017-09-03T11:58:35.481Z,22.09
2017-09-03T11:59:35.624Z,22.16
2017-09-03T12:00:35.453Z,22.10
2017-09-03T12:01:35.454Z,21.94
2017-09-03T12:02:35.454Z,22.21
2017-09-03T12:03:35.462Z,22.41
2017-09-03T12:04:35.425Z,22.65
2017-09-03T12:05:35.493Z,22.79
2017-09-03T12:06:35.437Z,22.80
2017-09-03T12:07:35.440Z,22.63
2017-09-03T12:08:35.459Z,22.82
2017-09-03T12:09:35.474Z,22.97
2017-09-03T12:10:35.532Z,23.16
2017-09-03T12:11:35.472Z,23.30
2017-09-03T12:12:35.438Z,23.35
2017-09-03T12:13:35.463Z,23.54
2017-09-03T12:14:35.514Z,23.47
2017-09-03T12:15:35.482Z,23.27
2017-09-03T12:16:35.501Z,22.98
2017-09-03T12:17:35.465Z,22.65
2017-09-03T12:18:35.396Z,22.50
2017-09-03T12:19:35.463Z,22.42
2017-09-03T12:20:35.475Z,22.64
2017-09-03T12:21:35.472Z,22.91
2017-09-03T12:22:35.444Z,23.11
2017-09-03T12:23:35.443Z,23.42
2017-09-03T12:24:35.452Z,23.37
2017-09-03T12:25:35.469Z,23.41
2017-09-03T12:26:35.445Z,23.08
2017-09-03T12:27:35.478Z,22.84
2017-09-03T12:28:35.479Z,22.84
2017-09-03T12:29:35.455Z,23.06
2017-09-03T12:30:35.472Z,23.19
2017-09-03T12:31:35.447Z,22.98
2017-09-03T12:32:35.449Z,22.60
2017-09-03T12:33:35.475Z,22.45
2017-09-03T12:34:35.476Z,22.02
2017-09-03T12:35:35.463Z,21.76
2017-09-03T12:36:35.456Z,21.57
2017-09-03T12:37:35.463Z,21.46
2017-09-03T12:38:35.403Z,21.47
2017-09-03T12:39:35.432Z,21.57
2017-09-03T12:40:35.478Z,21.71
2017-09-03T12:41:35.482Z,21.75
2017-09-03T12:42:35.515Z,21.86
2017-09-03T12:43:35.481Z,22.17
2017-09-03T12:44:35.477Z,22.48
2017-09-03T12:45:35.524Z,22.65
2017-09-03T12:46:35.437Z,22.79
2017-09-03T12:47:35.495Z,22.48
2017-09-03T12:48:35.505Z,22.25
2017-09-03T12:49:35.468Z,22.21
2017-09-03T12:50:35.539Z,22.16
2017-09-03T12:51:35.490Z,22.39
2017-09-03T12:52:35.537Z,22.56
2017-09-03T12:53:35.553Z,22.65
2017-09-03T12:54:35.484Z,22.70
2017-09-03T12:55:35.537Z,22.64
2017-09-03T12:56:35.472Z,22.48
2017-09-03T12:57:35.476Z,22.54
2017-09-03T12:58:35.433Z,22.72
2017-09-03T12:59:35.439Z,23.02
2017-09-03T13:00:35.435Z,23.06
2017-09-03T13:01:35.441Z,23.17
2017-09-03T13:02:35.471Z,23.05
2017-09-03T13:03:35.449Z,23.08
2017-09-03T13:04:35.474Z,22.88
2017-09-03T13:05:35.496Z,22.65
2017-09-03T13:06:35.494Z,22.46